Terminal Aerodrome Forecast
Issued by NWS

Home | Current Version | Previous Version | Text Only | Print | Product List | Glossary On
Versions: 1 2 3 4 5 6 7 8 9 10 11 12 13 14 15 16 17 18
266
FTUS41 KGYX 140520
TAFPSM
TAF
KPSM 140520Z 1406/1506 31018G28KT P6SM SCT035
     FM141200 30012KT P6SM SKC
     FM150000 VRB03KT P6SM SKC=

USA.gov is the U.S. government's official web portal to all federal, state and local government web resources and services.